Time;durP1;ratioP1;P1;durP2;ratioP2;P2;SDS_P1;SDS_P2;PMS_P1;PMS_P2;Temp;Humidity;BMP_temperature;BMP_pressure;BME280_temperature;BME280_humidity;BME280_pressure;Samples;Min_cycle;Max_cycle;Signal;HPM_P1;HPM_P2
2022/01/07 00:01:23;;;;;;;;;12.75;12.75;;;;;5.57;65.12;101209.84;4956344;28;46833;-52
2022/01/07 00:03:48;;;;;;;;;11.75;6.50;;;;;5.64;66.06;101230.97;4973951;28;45357;-53
2022/01/07 00:06:13;;;;;;;;;9.75;9.75;;;;;5.56;66.71;101201.88;4976112;28;45342;-52
2022/01/07 00:08:39;;;;;;;;;12.00;9.00;;;;;5.51;66.38;101221.41;4976050;28;45536;-54
2022/01/07 00:11:04;;;;;;;;;13.50;10.00;;;;;5.52;67.23;101225.00;4976590;28;46564;-53
2022/01/07 00:13:30;;;;;;;;;14.50;13.25;;;;;5.37;67.89;101190.25;4977496;28;45916;-53
2022/01/07 00:15:56;;;;;;;;;10.00;9.75;;;;;5.35;67.52;101175.09;4976224;28;45516;-54
2022/01/07 00:18:22;;;;;;;;;11.20;11.20;;;;;5.51;68.16;101188.75;4976571;28;45487;-55
2022/01/07 00:20:47;;;;;;;;;16.00;10.50;;;;;5.49;67.80;101190.78;4976256;28;46916;-49
2022/01/07 00:23:13;;;;;;;;;12.00;12.00;;;;;5.38;67.66;101177.47;4975980;28;45359;-54
2022/01/07 00:25:38;;;;;;;;;15.50;12.00;;;;;5.28;67.64;101172.19;4974692;28;45419;-52
2022/01/07 00:28:04;;;;;;;;;15.25;13.00;;;;;5.38;67.96;101183.78;4976501;28;45415;-54
2022/01/07 00:30:30;;;;;;;;;13.75;12.00;;;;;5.14;69.43;101135.59;4975579;28;45610;-50
2022/01/07 00:32:55;;;;;;;;;16.50;13.50;;;;;5.21;69.54;101144.81;4975786;28;45232;-53
2022/01/07 00:35:21;;;;;;;;;16.50;13.75;;;;;5.28;69.53;101159.44;4976113;28;45399;-51
2022/01/07 00:37:46;;;;;;;;;12.25;9.00;;;;;5.17;70.14;101121.66;4975947;28;45170;-49
2022/01/07 00:40:14;;;;;;;;;13.00;10.00;;;;;5.27;70.65;101144.13;4974794;28;46022;-55
2022/01/07 00:42:40;;;;;;;;;11.80;11.40;;;;;5.25;70.89;101145.31;4957958;28;45338;-52
2022/01/07 00:45:06;;;;;;;;;19.50;13.50;;;;;4.96;70.87;101113.97;4975688;28;45355;-58
2022/01/07 00:47:31;;;;;;;;;14.25;9.50;;;;;4.91;70.60;101100.00;4975614;28;45552;-51
2022/01/07 00:49:58;;;;;;;;;16.00;13.00;;;;;5.07;70.47;101145.44;4975784;28;46459;-51
2022/01/07 00:52:24;;;;;;;;;9.00;9.00;;;;;4.87;70.73;101113.09;4977262;28;45366;-53
2022/01/07 00:54:49;;;;;;;;;8.75;8.75;;;;;5.05;70.74;101150.19;4975494;28;45463;-54
2022/01/07 00:57:15;;;;;;;;;13.00;11.75;;;;;4.96;70.47;101139.28;4975725;28;45403;-54
2022/01/07 00:59:40;;;;;;;;;10.25;9.75;;;;;5.01;71.24;101152.38;4975126;28;45627;-54
2022/01/07 01:02:06;;;;;;;;;14.75;10.50;;;;;4.98;71.37;101148.16;4975342;28;45320;-52
2022/01/07 01:04:31;;;;;;;;;10.25;9.00;;;;;4.80;71.11;101103.88;4958302;28;45401;-54
2022/01/07 01:06:57;;;;;;;;;16.00;10.25;;;;;4.99;70.84;101138.97;4975320;28;45277;-52
2022/01/07 01:09:22;;;;;;;;;6.00;6.00;;;;;4.88;71.17;101120.22;4974331;28;45409;-52
2022/01/07 01:11:48;;;;;;;;;9.75;8.00;;;;;4.97;71.19;101121.09;4957659;28;45418;-53
2022/01/07 01:14:13;;;;;;;;;12.75;11.00;;;;;4.96;71.78;101124.84;4974357;28;45304;-50
2022/01/07 01:16:39;;;;;;;;;11.25;6.50;;;;;4.62;71.00;101072.19;4975901;28;45890;-53
2022/01/07 01:19:05;;;;;;;;;8.50;4.75;;;;;4.97;71.26;101129.25;4975293;28;45359;-54
2022/01/07 01:21:30;;;;;;;;;7.50;5.25;;;;;4.96;70.90;101124.84;4977506;28;45519;-50
2022/01/07 01:23:56;;;;;;;;;12.00;12.00;;;;;4.94;70.55;101122.28;4968289;28;47006;-57
2022/01/07 01:26:22;;;;;;;;;16.25;9.00;;;;;4.93;71.14;101119.72;4976409;28;45789;-52
2022/01/07 01:28:47;;;;;;;;;9.25;9.25;;;;;4.93;70.54;101117.88;4998138;28;46239;-53
2022/01/07 01:31:15;;;;;;;;;11.00;8.25;;;;;4.94;70.93;101130.44;4998347;28;45442;-52
2022/01/07 01:33:41;;;;;;;;;11.40;9.80;;;;;4.90;70.49;101114.63;4980884;28;45319;-55
2022/01/07 01:36:08;;;;;;;;;10.75;10.50;;;;;4.90;70.89;101131.78;4998259;28;45648;-51
2022/01/07 01:38:34;;;;;;;;;8.80;8.00;;;;;4.89;70.75;101149.13;4980631;28;47328;-51
2022/01/07 01:41:00;;;;;;;;;14.25;12.00;;;;;4.85;70.96;101115.97;4998510;28;45226;-52
2022/01/07 01:43:25;;;;;;;;;12.00;9.75;;;;;4.67;71.40;101102.47;4997201;28;45469;-53
2022/01/07 01:45:51;;;;;;;;;12.00;10.75;;;;;4.86;71.05;101133.97;4998281;28;45539;-52
2022/01/07 01:48:16;;;;;;;;;9.00;8.00;;;;;4.83;70.64;101120.72;4996771;28;46164;-51
2022/01/07 01:50:42;;;;;;;;;11.50;9.25;;;;;4.86;71.59;101146.75;4998253;28;45482;-52
2022/01/07 01:53:07;;;;;;;;;9.75;9.00;;;;;4.85;71.31;101115.09;4998304;28;45350;-51
2022/01/07 01:55:33;;;;;;;;;12.50;9.50;;;;;4.81;71.38;101139.06;4970733;28;45474;-53
2022/01/07 01:57:59;;;;;;;;;12.75;12.00;;;;;4.63;72.16;101103.81;4978065;28;45966;-59
2022/01/07 02:00:25;;;;;;;;;12.25;11.50;;;;;4.90;71.52;101115.47;4978770;28;45408;-50
2022/01/07 02:02:50;;;;;;;;;10.00;10.00;;;;;4.87;71.55;101122.06;4978474;28;45319;-52
2022/01/07 02:05:16;;;;;;;;;15.50;13.25;;;;;4.82;71.64;101112.72;4978223;28;45243;-58
2022/01/07 02:07:42;;;;;;;;;10.00;9.00;;;;;4.87;72.41;101105.75;4978404;28;46430;-52
2022/01/07 02:10:10;;;;;;;;;8.75;8.50;;;;;4.68;71.38;101076.97;4960636;28;45423;-50
2022/01/07 02:12:36;;;;;;;;;10.20;10.20;;;;;4.91;70.96;101114.44;4978125;28;45518;-50
2022/01/07 02:15:01;;;;;;;;;8.00;8.00;;;;;4.94;71.65;101108.69;4978596;28;45322;-55
2022/01/07 02:17:27;;;;;;;;;10.50;10.50;;;;;4.90;71.69;101099.13;4960292;28;45554;-53
2022/01/07 02:19:53;;;;;;;;;13.25;9.75;;;;;4.98;71.71;101109.19;4977923;28;45426;-53
2022/01/07 02:22:19;;;;;;;;;9.00;9.00;;;;;4.97;72.09;101102.06;4978204;28;45405;-54
2022/01/07 02:24:45;;;;;;;;;8.50;8.00;;;;;5.01;72.12;101089.81;4960763;28;45405;-51
2022/01/07 02:27:11;;;;;;;;;12.20;10.60;;;;;4.38;71.27;100985.97;4960528;28;48206;-53
2022/01/07 02:29:37;;;;;;;;;9.00;9.00;;;;;5.05;72.13;101090.31;4960656;28;45944;-53
2022/01/07 02:32:03;;;;;;;;;15.50;9.50;;;;;5.00;71.92;101088.97;4960533;28;45373;-56
2022/01/07 02:34:29;;;;;;;;;14.75;12.00;;;;;4.88;72.51;101057.66;4977564;28;45351;-51
2022/01/07 02:36:54;;;;;;;;;10.00;10.00;;;;;4.98;72.02;101074.69;4960328;28;46473;-55
2022/01/07 02:39:20;;;;;;;;;7.50;7.50;;;;;4.97;72.08;101080.28;4961763;28;45431;-55
2022/01/07 02:41:45;;;;;;;;;8.75;8.75;;;;;5.00;72.75;101071.78;4978640;28;45507;-54
2022/01/07 02:44:11;;;;;;;;;10.75;10.75;;;;;5.03;72.40;101060.59;4978059;28;45453;-54
2022/01/07 02:46:37;;;;;;;;;12.25;9.75;;;;;4.85;72.72;101033.50;4977447;28;45495;-55
2022/01/07 02:49:16;;;;;;;;;9.75;7.75;;;;;4.99;72.58;101048.31;4977909;28;45381;-52
2022/01/07 02:51:42;;;;;;;;;8.80;8.60;;;;;5.11;72.72;101063.31;4943820;28;45400;-53
2022/01/07 02:54:07;;;;;;;;;13.20;8.40;;;;;4.85;72.32;101009.00;4960340;28;45570;-55
2022/01/07 02:56:33;;;;;;;;;9.50;7.00;;;;;5.05;71.60;101044.94;4975850;28;46047;-54
2022/01/07 02:58:59;;;;;;;;;8.60;8.20;;;;;5.05;72.26;101049.50;4977468;28;45507;-50
2022/01/07 03:01:25;;;;;;;;;10.75;8.50;;;;;5.09;71.67;101050.88;4976327;28;45389;-52
2022/01/07 03:03:50;;;;;;;;;10.25;8.75;;;;;5.10;72.10;101058.91;4965143;28;45458;-55
2022/01/07 03:06:16;;;;;;;;;8.50;7.00;;;;;5.11;72.58;101065.16;4996819;28;45390;-50
2022/01/07 03:08:44;;;;;;;;;12.50;8.75;;;;;5.12;72.40;101050.56;4990806;28;45382;-50
2022/01/07 03:11:10;;;;;;;;;9.00;9.00;;;;;5.10;71.52;101060.75;4978701;28;45380;-51
2022/01/07 03:13:36;;;;;;;;;8.50;8.00;;;;;5.09;71.47;101059.06;4996668;28;45244;-55
2022/01/07 03:16:01;;;;;;;;;11.00;8.00;;;;;5.00;71.72;101039.13;4995203;28;46179;-55
2022/01/07 03:18:27;;;;;;;;;8.75;5.00;;;;;5.06;72.11;101054.78;4976268;28;45259;-50
2022/01/07 03:20:52;;;;;;;;;5.50;5.50;;;;;5.04;71.55;101059.56;4994501;28;45347;-54
2022/01/07 03:23:18;;;;;;;;;14.25;9.00;;;;;5.02;72.42;101061.63;4997077;28;45344;-51
2022/01/07 03:25:46;;;;;;;;;12.75;9.75;;;;;5.05;72.60;101052.22;4996561;28;46216;-50
2022/01/07 03:28:12;;;;;;;;;9.20;5.60;;;;;5.00;71.78;101056.31;4996738;28;45457;-54
2022/01/07 03:30:38;;;;;;;;;7.20;7.20;;;;;5.01;71.71;101057.16;4995716;28;45291;-55
2022/01/07 03:33:04;;;;;;;;;10.50;7.00;;;;;5.05;71.65;101057.69;4996744;28;45390;-55
2022/01/07 03:35:30;;;;;;;;;11.75;6.50;;;;;5.06;71.14;101045.81;4978360;28;45527;-52
2022/01/07 03:37:55;;;;;;;;;10.50;10.50;;;;;5.15;72.01;101048.38;4995256;28;46092;-50
2022/01/07 03:40:21;;;;;;;;;10.75;9.00;;;;;5.15;70.81;101042.06;4996734;28;45341;-52
2022/01/07 03:42:47;;;;;;;;;6.25;4.25;;;;;5.04;71.32;101017.88;4994677;28;45602;-54
2022/01/07 03:45:13;;;;;;;;;15.20;8.60;;;;;5.19;71.44;101042.56;4978028;28;45493;-52
2022/01/07 03:47:39;;;;;;;;;8.75;7.00;;;;;5.19;70.31;101034.41;4978676;28;45289;-54
2022/01/07 03:50:06;;;;;;;;;8.75;8.00;;;;;5.00;70.60;100987.44;4996464;28;45291;-55
2022/01/07 03:52:32;;;;;;;;;8.80;7.60;;;;;5.22;71.36;101034.91;4996743;28;45334;-51
2022/01/07 03:54:57;;;;;;;;;11.00;9.00;;;;;4.78;70.73;100961.75;4996006;28;46750;-53
2022/01/07 03:57:23;;;;;;;;;8.25;6.50;;;;;5.07;71.04;101001.25;4978717;28;45454;-53
2022/01/07 03:59:50;;;;;;;;;6.50;6.50;;;;;5.29;70.74;101024.22;4976273;28;45322;-50
2022/01/07 04:02:18;;;;;;;;;5.40;5.20;;;;;5.28;70.93;101033.38;4976100;28;45370;-53
2022/01/07 04:04:44;;;;;;;;;8.00;6.20;;;;;5.26;70.30;101028.13;4976295;28;46107;-53
2022/01/07 04:07:10;;;;;;;;;8.20;6.00;;;;;5.27;70.56;101032.53;4958160;28;45334;-56
2022/01/07 04:09:35;;;;;;;;;7.00;5.00;;;;;5.28;70.38;101012.47;4976734;28;45600;-52
2022/01/07 04:12:01;;;;;;;;;5.00;5.00;;;;;5.28;70.10;101020.63;4976179;28;45461;-56
2022/01/07 04:14:27;;;;;;;;;5.00;5.00;;;;;5.29;70.95;101010.59;4975856;28;46361;-56
2022/01/07 04:16:53;;;;;;;;;7.50;6.00;;;;;5.25;70.74;100996.50;4958607;28;45433;-51
2022/01/07 04:19:18;;;;;;;;;5.00;4.00;;;;;5.14;70.61;100970.44;4976055;28;45901;-49
2022/01/07 04:21:44;;;;;;;;;6.00;4.75;;;;;5.33;70.35;101002.94;4976003;28;45901;-56
2022/01/07 04:24:09;;;;;;;;;4.00;4.00;;;;;5.32;69.98;100996.63;4975423;28;45930;-53
2022/01/07 04:26:35;;;;;;;;;4.50;4.50;;;;;5.37;70.33;101009.72;4977557;28;45874;-56
2022/01/07 04:29:00;;;;;;;;;7.50;5.00;;;;;5.40;69.99;101006.69;4978271;28;45556;-53
2022/01/07 04:31:26;;;;;;;;;8.50;7.00;;;;;5.41;70.56;101000.22;4958325;28;45353;-53
2022/01/07 04:33:51;;;;;;;;;5.00;5.00;;;;;5.39;70.42;101002.25;4976205;28;45490;-52
2022/01/07 04:36:17;;;;;;;;;5.75;5.75;;;;;5.12;70.58;100953.44;4975831;28;45394;-55
2022/01/07 04:38:44;;;;;;;;;6.50;6.50;;;;;5.42;69.66;100997.31;4959070;28;45330;-51
2022/01/07 04:41:09;;;;;;;;;4.80;4.20;;;;;5.41;69.64;100992.88;4958918;28;45642;-51
2022/01/07 04:43:35;;;;;;;;;4.00;4.00;;;;;5.37;69.88;100991.53;4976165;28;45710;-56
2022/01/07 04:46:00;;;;;;;;;6.00;4.25;;;;;5.18;70.78;100960.06;4976131;28;45234;-52
2022/01/07 04:48:26;;;;;;;;;7.00;5.00;;;;;5.48;70.00;101003.09;4941336;28;45589;-50
2022/01/07 04:50:51;;;;;;;;;7.50;5.00;;;;;5.49;70.35;101013.81;4976107;28;45721;-56
2022/01/07 04:53:17;;;;;;;;;6.75;5.00;;;;;5.45;69.45;101025.22;4975449;28;45479;-52
2022/01/07 04:55:44;;;;;;;;;4.25;4.25;;;;;5.00;69.47;100936.63;4975133;28;45675;-52
2022/01/07 04:58:11;;;;;;;;;4.60;4.60;;;;;5.45;69.64;101015.19;4974699;28;45465;-52
2022/01/07 05:00:37;;;;;;;;;4.00;4.00;;;;;5.47;69.84;101004.09;4975597;28;45211;-56
2022/01/07 05:03:03;;;;;;;;;6.00;5.00;;;;;5.47;70.38;101006.84;4957777;28;47479;-53
2022/01/07 05:05:28;;;;;;;;;4.50;3.50;;;;;5.40;70.22;100993.06;4975403;28;45567;-53
2022/01/07 05:07:54;;;;;;;;;4.00;2.50;;;;;5.43;70.34;100995.44;4975204;28;45366;-52
2022/01/07 05:10:19;;;;;;;;;11.50;5.75;;;;;5.34;70.44;100971.97;4975887;28;45225;-50
2022/01/07 05:12:45;;;;;;;;;5.25;4.25;;;;;5.34;69.78;100991.03;4973611;28;45320;-50
2022/01/07 05:15:12;;;;;;;;;3.50;3.50;;;;;4.79;70.19;100912.63;4975752;28;45308;-56
2022/01/07 05:17:37;;;;;;;;;5.00;5.00;;;;;5.10;70.75;100957.34;4975699;28;45346;-52
2022/01/07 05:20:03;;;;;;;;;4.25;4.25;;;;;5.28;70.19;100990.69;4975876;28;45356;-52
2022/01/07 05:22:29;;;;;;;;;4.00;4.00;;;;;5.16;70.91;100994.78;4974626;28;47098;-53
2022/01/07 05:24:54;;;;;;;;;4.00;4.00;;;;;5.23;71.32;100989.50;4957443;28;45424;-53
2022/01/07 05:27:20;;;;;;;;;3.50;2.00;;;;;5.26;70.80;101000.03;4957767;28;45339;-55
2022/01/07 05:29:45;;;;;;;;;4.25;4.25;;;;;5.27;71.09;101005.31;4975181;28;45359;-56
2022/01/07 05:32:11;;;;;;;;;5.00;4.25;;;;;5.24;70.13;101011.09;4975163;28;46567;-49
2022/01/07 05:34:36;;;;;;;;;6.00;5.00;;;;;5.24;71.31;100999.38;4974991;28;45401;-54
2022/01/07 05:37:02;;;;;;;;;2.00;1.75;;;;;5.15;70.35;100987.63;4975066;28;45333;-57
2022/01/07 05:39:27;;;;;;;;;4.50;2.50;;;;;5.25;70.92;101009.22;4974886;28;45327;-52
2022/01/07 05:41:53;;;;;;;;;5.00;5.00;;;;;5.22;70.97;100998.69;4973688;28;45354;-53
2022/01/07 05:44:19;;;;;;;;;4.00;4.00;;;;;4.99;70.41;100966.72;4974990;28;45355;-58
2022/01/07 05:46:44;;;;;;;;;3.50;3.50;;;;;5.21;71.28;101006.00;4974983;28;45367;-51
2022/01/07 05:49:10;;;;;;;;;6.25;4.00;;;;;5.22;70.94;100999.53;4975284;28;45381;-52
2022/01/07 05:51:35;;;;;;;;;7.00;4.00;;;;;5.23;70.53;101000.41;4957523;28;45307;-56
2022/01/07 05:54:01;;;;;;;;;4.00;4.00;;;;;5.23;70.56;100997.69;4974706;28;45392;-55
2022/01/07 05:56:26;;;;;;;;;2.00;1.00;;;;;5.21;71.08;100995.13;4974653;28;45520;-54
2022/01/07 05:58:52;;;;;;;;;5.25;5.25;;;;;5.26;70.65;101000.03;4957551;28;45411;-53
2022/01/07 06:01:18;;;;;;;;;4.80;4.00;;;;;5.26;70.85;101006.34;4957183;28;46355;-54
2022/01/07 06:03:43;;;;;;;;;0.75;0.75;;;;;5.27;72.00;101007.19;4975070;28;45359;-54
2022/01/07 06:06:09;;;;;;;;;5.25;4.75;;;;;5.28;71.34;101003.44;4976131;28;45319;-53
2022/01/07 06:08:34;;;;;;;;;5.00;4.25;;;;;5.08;71.26;100964.84;4978334;28;45393;-51
2022/01/07 06:11:00;;;;;;;;;4.00;4.00;;;;;5.26;71.67;101000.91;4943924;28;46623;-50
2022/01/07 06:13:25;;;;;;;;;6.00;5.00;;;;;5.29;71.83;101013.31;4977783;28;45350;-54
2022/01/07 06:15:51;;;;;;;;;5.00;4.00;;;;;5.29;72.31;101002.44;4979501;28;45452;-54
2022/01/07 06:18:16;;;;;;;;;5.00;2.50;;;;;5.31;72.35;101010.41;4981508;28;45339;-53
2022/01/07 06:20:42;;;;;;;;;1.75;1.75;;;;;5.32;71.41;101006.69;4978064;28;46514;-55
2022/01/07 06:23:08;;;;;;;;;4.00;4.00;;;;;5.00;72.44;100961.09;4977382;28;45301;-50
2022/01/07 06:25:33;;;;;;;;;5.00;4.00;;;;;5.34;71.95;101019.09;4960056;28;45375;-54
2022/01/07 06:27:58;;;;;;;;;3.00;3.00;;;;;5.39;71.95;101021.31;4960525;28;45508;-56
2022/01/07 06:30:24;;;;;;;;;7.25;4.50;;;;;5.45;71.74;101027.94;4976363;28;48157;-55
2022/01/07 06:32:50;;;;;;;;;6.50;5.00;;;;;5.48;72.38;101028.44;4960382;28;45437;-51
2022/01/07 06:35:16;;;;;;;;;3.75;2.00;;;;;5.37;72.35;100996.97;4976705;28;45405;-54
2022/01/07 06:37:43;;;;;;;;;4.20;4.20;;;;;5.43;72.40;101003.59;4977963;28;45388;-52
2022/01/07 06:40:09;;;;;;;;;5.00;2.50;;;;;5.55;71.82;101002.22;4959827;28;46000;-52
2022/01/07 06:42:35;;;;;;;;;4.00;4.00;;;;;5.51;72.13;101011.75;4977345;28;45372;-56
2022/01/07 06:45:00;;;;;;;;;5.00;4.00;;;;;5.48;71.60;100994.91;4959886;28;45519;-57
2022/01/07 06:47:26;;;;;;;;;5.25;4.00;;;;;5.58;72.34;101006.47;4977497;28;45397;-49
2022/01/07 06:49:51;;;;;;;;;4.50;4.00;;;;;5.56;72.01;101000.38;4977286;28;45337;-55
2022/01/07 06:52:17;;;;;;;;;7.00;3.50;;;;;5.52;72.65;101009.91;4959722;28;45572;-53
2022/01/07 06:54:42;;;;;;;;;5.25;5.25;;;;;5.60;72.89;100998.16;4960362;28;45304;-51
2022/01/07 06:57:08;;;;;;;;;8.00;6.00;;;;;5.63;72.41;101000.50;4959342;28;45503;-55
2022/01/07 06:59:33;;;;;;;;;10.00;7.50;;;;;5.64;72.05;100996.75;4975823;28;46519;-53
2022/01/07 07:01:59;;;;;;;;;6.00;4.75;;;;;5.43;72.12;100965.50;4977029;28;45365;-52
2022/01/07 07:04:24;;;;;;;;;4.00;4.00;;;;;5.66;71.80;101003.75;4977036;28;45202;-50
2022/01/07 07:06:50;;;;;;;;;5.75;5.00;;;;;5.52;72.32;100966.34;4977565;28;45158;-53
2022/01/07 07:09:17;;;;;;;;;5.00;5.00;;;;;5.68;71.98;101003.56;4959001;28;47378;-50
2022/01/07 07:11:43;;;;;;;;;8.20;7.60;;;;;5.69;71.95;101017.03;4976749;28;45419;-52
2022/01/07 07:14:12;;;;;;;;;5.20;5.00;;;;;5.74;72.12;101019.22;4961581;28;48949;-54
2022/01/07 07:16:37;;;;;;;;;5.00;5.00;;;;;5.66;72.55;101005.63;4963993;28;45383;-54
2022/01/07 07:19:03;;;;;;;;;4.00;4.00;;;;;5.77;72.72;101015.31;4941871;28;46554;-51
2022/01/07 07:21:28;;;;;;;;;9.75;4.25;;;;;5.77;73.14;101018.03;4976437;28;45229;-54
2022/01/07 07:23:54;;;;;;;;;5.50;5.50;;;;;5.79;72.61;101024.16;4976896;28;45352;-51
2022/01/07 07:26:19;;;;;;;;;16.25;6.00;;;;;5.80;72.76;101010.38;4976656;28;45360;-55
2022/01/07 07:28:46;;;;;;;;;4.25;3.00;;;;;5.77;72.77;101002.53;4976129;28;45459;-54
2022/01/07 07:31:14;;;;;;;;;5.00;5.00;;;;;5.86;73.00;101016.97;4943452;28;45473;-54
2022/01/07 07:39:09;;;;;;;;;5.20;5.00;;;;;5.70;72.91;100996.94;4962095;28;45926;-57
2022/01/07 07:41:35;;;;;;;;;5.60;4.60;;;;;5.94;73.07;101029.75;4976693;28;45531;-57
2022/01/07 07:44:01;;;;;;;;;8.20;4.60;;;;;5.94;73.17;101041.47;4976638;28;45382;-57
2022/01/07 07:46:30;;;;;;;;;2.50;2.50;;;;;5.95;72.60;101054.09;4958875;28;45530;-50
2022/01/07 07:48:55;;;;;;;;;11.60;11.60;;;;;5.98;72.76;101047.44;4976663;28;46914;-52
2022/01/07 07:51:21;;;;;;;;;4.00;4.00;;;;;5.97;73.67;101049.31;4977019;28;45162;-54
2022/01/07 07:53:46;;;;;;;;;4.25;3.75;;;;;5.97;73.53;101056.63;4975922;28;45246;-55
2022/01/07 07:56:13;;;;;;;;;3.00;3.00;;;;;6.01;73.70;101059.84;4959114;28;45542;-52
2022/01/07 07:58:39;;;;;;;;;4.40;3.80;;;;;6.05;73.01;101063.97;4970978;28;46221;-50
2022/01/07 08:01:05;;;;;;;;;8.00;4.75;;;;;5.82;73.74;101026.53;4964785;28;45332;-50
2022/01/07 08:03:30;;;;;;;;;3.60;3.60;;;;;6.06;73.79;101073.84;4976581;28;45442;-54
2022/01/07 08:05:56;;;;;;;;;6.00;6.00;;;;;5.91;74.32;101043.69;4968512;28;45920;-54
2022/01/07 08:08:22;;;;;;;;;4.00;4.00;;;;;6.08;74.35;101072.66;4908287;28;45550;-55
2022/01/07 08:10:54;;;;;;;;;10.00;6.75;;;;;6.06;74.99;101074.72;4950289;28;45749;-53
2022/01/07 08:13:30;;;;;;;;;5.40;3.80;;;;;5.98;74.97;101058.34;4967993;28;45482;-53
2022/01/07 08:16:02;;;;;;;;;5.20;4.60;;;;;6.02;75.36;101058.84;4965721;28;45314;-50
2022/01/07 08:18:34;;;;;;;;;2.00;2.00;;;;;6.00;74.64;101059.03;4960327;28;45732;-54
2022/01/07 08:21:02;;;;;;;;;5.60;4.80;;;;;6.00;75.49;101066.34;4959184;28;45233;-50
2022/01/07 08:23:28;;;;;;;;;4.40;4.40;;;;;6.02;75.40;101057.00;4975543;28;45372;-54
2022/01/07 08:25:53;;;;;;;;;2.00;2.00;;;;;6.01;75.08;101074.34;4959122;28;45496;-52
2022/01/07 08:28:20;;;;;;;;;4.75;4.75;;;;;6.02;75.00;101065.16;4960369;28;45405;-51
2022/01/07 08:36:20;;;;;;;;;7.60;6.00;;;;;5.97;74.80;101049.31;4976666;28;45198;-51
2022/01/07 08:38:45;;;;;;;;;2.75;2.75;;;;;6.05;74.51;101062.13;4975703;28;45413;-54
2022/01/07 08:41:11;;;;;;;;;4.75;4.00;;;;;6.05;74.44;101059.38;4976338;28;45328;-58
2022/01/07 08:43:37;;;;;;;;;4.50;4.00;;;;;6.01;74.70;101051.69;4942612;28;45467;-50
2022/01/07 08:46:04;;;;;;;;;0.75;0.75;;;;;6.06;74.57;101057.50;4976378;28;45896;-56
2022/01/07 08:48:30;;;;;;;;;7.80;3.80;;;;;5.82;74.72;101034.72;4958299;28;46458;-53
2022/01/07 08:50:55;;;;;;;;;1.00;1.00;;;;;6.01;75.26;101058.00;4934367;28;45685;-54
2022/01/07 08:53:21;;;;;;;;;5.00;1.75;;;;;6.06;74.24;101061.09;4951658;28;45585;-55
2022/01/07 08:55:47;;;;;;;;;1.00;1.00;;;;;5.70;75.18;100985.19;4987208;28;45470;-51
2022/01/07 08:58:13;;;;;;;;;1.40;1.40;;;;;6.07;74.84;101002.81;4968490;28;45513;-52
2022/01/07 09:00:38;;;;;;;;;5.00;2.00;;;;;6.05;74.52;101004.03;4962235;28;45514;-57
2022/01/07 09:03:04;;;;;;;;;4.50;4.25;;;;;6.02;74.78;101017.97;4984710;28;45714;-53
2022/01/07 09:05:29;;;;;;;;;2.25;1.00;;;;;6.03;74.64;101017.81;4938285;28;45476;-56
2022/01/07 09:07:55;;;;;;;;;0.25;0.25;;;;;6.07;74.42;101000.09;4963697;28;45927;-53
2022/01/07 09:10:21;;;;;;;;;1.00;1.00;;;;;6.10;74.67;100980.66;4976941;28;45728;-54
2022/01/07 09:12:46;;;;;;;;;2.75;0.75;;;;;6.12;75.22;100998.72;4985147;28;45355;-52
2022/01/07 09:15:15;;;;;;;;;0.75;0.75;;;;;6.12;74.51;101006.91;4970556;28;45467;-57
2022/01/07 09:17:41;;;;;;;;;2.40;2.00;;;;;6.11;74.90;101025.13;4946305;28;46659;-53
2022/01/07 09:20:08;;;;;;;;;6.60;3.60;;;;;6.13;74.20;101030.41;4949023;28;45915;-56
2022/01/07 09:22:34;;;;;;;;;1.00;1.00;;;;;6.15;74.29;101042.84;4970675;28;45450;-57
2022/01/07 09:24:59;;;;;;;;;1.00;1.00;;;;;5.94;74.78;101003.31;4969964;28;45689;-52
2022/01/07 09:27:25;;;;;;;;;3.75;1.00;;;;;6.22;73.70;101043.84;4970526;28;45351;-60
2022/01/07 09:29:50;;;;;;;;;2.50;2.50;;;;;6.25;74.14;101045.34;4969980;28;45504;-54
2022/01/07 09:32:16;;;;;;;;;4.00;2.00;;;;;6.26;72.95;101047.06;4970102;28;45456;-53
2022/01/07 09:34:42;;;;;;;;;1.25;1.25;;;;;6.26;73.64;101043.47;4953390;28;45583;-55
2022/01/07 09:37:07;;;;;;;;;2.00;0.75;;;;;6.26;73.49;101049.78;4970973;28;45981;-55
2022/01/07 09:39:37;;;;;;;;;1.00;1.00;;;;;6.28;73.50;101057.75;4951167;28;45831;-58
2022/01/07 09:42:06;;;;;;;;;3.60;1.60;;;;;6.10;73.79;101024.25;4973759;28;45503;-56
2022/01/07 09:44:38;;;;;;;;;3.20;2.00;;;;;6.31;74.05;101047.38;4957304;28;45385;-57
2022/01/07 09:47:04;;;;;;;;;5.40;2.00;;;;;6.35;73.96;101047.88;4957104;28;46340;-56
2022/01/07 09:49:33;;;;;;;;;5.00;1.00;;;;;6.40;73.65;101055.53;4956699;28;45451;-54
2022/01/07 09:51:59;;;;;;;;;2.00;1.00;;;;;6.45;72.65;101044.94;4947698;28;45509;-54
2022/01/07 09:54:24;;;;;;;;;1.75;1.75;;;;;6.46;73.08;101038.47;4957885;28;45796;-57
2022/01/07 09:56:51;;;;;;;;;3.00;1.75;;;;;6.39;72.30;101019.22;4973865;28;45522;-56
2022/01/07 09:59:17;;;;;;;;;1.00;1.00;;;;;6.51;72.91;101041.47;4974428;28;45805;-55
2022/01/07 10:02:05;;;;;;;;;1.00;1.00;;;;;6.45;72.46;101034.03;4973433;28;45341;-58
2022/01/07 10:04:33;;;;;;;;;1.80;1.80;;;;;6.45;72.66;101036.75;4972210;28;45475;-55
2022/01/07 10:07:17;;;;;;;;;2.20;1.00;;;;;6.45;72.50;101032.13;4971916;28;46289;-58
2022/01/07 10:10:06;;;;;;;;;1.00;1.00;;;;;6.48;72.37;101039.13;4972790;28;45447;-60
2022/01/07 10:12:53;;;;;;;;;0.80;0.80;;;;;6.58;72.40;101028.00;4972944;28;45401;-53
2022/01/07 10:15:40;;;;;;;;;2.20;1.00;;;;;6.73;71.85;101028.09;4973004;28;45371;-58
2022/01/07 10:18:06;;;;;;;;;4.60;2.00;;;;;6.67;71.86;101006.97;4972860;28;46480;-53
2022/01/07 10:20:33;;;;;;;;;1.60;1.60;;;;;6.84;71.40;101041.31;4972713;28;45514;-54
2022/01/07 10:23:04;;;;;;;;;2.80;1.00;;;;;6.88;70.74;101037.19;4971435;28;45398;-52
2022/01/07 10:25:31;;;;;;;;;1.20;1.20;;;;;6.97;71.19;101021.63;4972866;28;45469;-57
2022/01/07 10:28:16;;;;;;;;;1.40;1.00;;;;;7.02;70.92;101013.75;4934799;28;47919;-58
2022/01/07 10:30:43;;;;;;;;;1.20;1.20;;;;;7.00;70.33;101012.22;4935233;28;45494;-54
2022/01/07 10:33:30;;;;;;;;;0.20;0.20;;;;;6.97;70.93;100998.94;4955783;28;45854;-52
2022/01/07 10:36:08;;;;;;;;;1.00;1.00;;;;;6.95;70.66;101003.72;4975897;28;45594;-53
2022/01/07 10:38:35;;;;;;;;;1.60;0.60;;;;;6.75;70.95;100960.53;4988509;28;45705;-53
2022/01/07 10:41:00;;;;;;;;;1.60;1.00;;;;;6.76;71.02;100978.59;4953120;28;46008;-52
2022/01/07 10:43:33;;;;;;;;;1.00;1.00;;;;;6.95;70.84;100990.09;4972070;28;45883;-53
2022/01/07 10:46:27;;;;;;;;;0.00;0.00;;;;;6.98;70.71;100992.47;4972341;28;45444;-54
2022/01/07 10:48:54;;;;;;;;;1.00;0.00;;;;;6.99;71.11;100988.69;4971870;28;45838;-54
2022/01/07 10:51:24;;;;;;;;;0.60;0.60;;;;;6.94;70.92;100989.22;4952223;28;45428;-54
2022/01/07 10:53:54;;;;;;;;;0.00;0.00;;;;;7.00;71.37;100987.66;4953955;28;45859;-53
2022/01/07 10:56:22;;;;;;;;;0.00;0.00;;;;;7.05;70.15;100987.97;4957897;28;45967;-55
2022/01/07 10:58:51;;;;;;;;;0.75;0.75;;;;;7.21;70.22;101005.25;4926268;28;1308929;-54
2022/01/07 11:01:20;;;;;;;;;3.00;1.00;;;;;7.30;69.78;100999.53;4962058;28;45474;-53
2022/01/07 11:03:46;;;;;;;;;2.80;1.00;;;;;7.50;69.30;100995.41;4971940;28;45399;-55
2022/01/07 11:06:12;;;;;;;;;0.60;0.00;;;;;7.70;69.36;100991.09;4955964;28;45679;-49
2022/01/07 11:08:38;;;;;;;;;0.75;0.00;;;;;7.86;68.80;100998.28;4973315;28;45533;-55
2022/01/07 11:11:03;;;;;;;;;1.00;0.00;;;;;7.86;67.63;100992.81;4973754;28;45477;-55
2022/01/07 11:13:30;;;;;;;;;0.25;0.25;;;;;7.84;67.88;101000.38;4955765;28;45852;-55
2022/01/07 11:15:55;;;;;;;;;2.00;0.60;;;;;7.75;67.59;100990.56;4972758;28;45451;-55
2022/01/07 11:18:21;;;;;;;;;0.75;0.00;;;;;7.80;67.89;100993.56;4972577;28;45811;-57
2022/01/07 11:20:47;;;;;;;;;0.25;0.00;;;;;7.75;68.23;100995.19;4971421;28;45439;-53
2022/01/07 11:23:12;;;;;;;;;1.25;1.00;;;;;7.69;68.28;100973.03;4973505;28;45347;-52
2022/01/07 11:25:38;;;;;;;;;1.00;1.00;;;;;7.84;68.32;100977.66;4939356;28;45583;-53
2022/01/07 11:28:03;;;;;;;;;0.00;0.00;;;;;7.93;68.03;100970.22;4955385;28;45602;-53
2022/01/07 11:30:32;;;;;;;;;4.50;2.00;;;;;7.97;67.40;100980.59;4962537;28;45731;-51
2022/01/07 11:32:58;;;;;;;;;1.60;1.00;;;;;8.19;66.85;100988.88;4947792;28;45485;-50
2022/01/07 11:35:24;;;;;;;;;0.00;0.00;;;;;9.37;63.36;100923.97;4965517;28;45586;-49
2022/01/07 11:37:56;;;;;;;;;2.00;1.00;;;;;12.20;58.47;100989.66;4973116;28;46437;-56